Time;durP1;ratioP1;P1;durP2;ratioP2;P2;SDS_P1;SDS_P2;PMS_P1;PMS_P2;Temp;Humidity;BMP_temperature;BMP_pressure;BME280_temperature;BME280_humidity;BME280_pressure;Samples;Min_cycle;Max_cycle;Signal;HPM_P1;HPM_P2
2023/08/25 00:02:09;;;;;;;3.45;2.75;;;21.10;99.90;;;;;;4990571;28;20228;-77
2023/08/25 00:04:37;;;;;;;2.83;2.42;;;20.90;99.90;;;;;;5011156;28;20226;-77
2023/08/25 00:07:04;;;;;;;5.85;3.38;;;20.90;99.90;;;;;;4995202;28;20207;-77
2023/08/25 00:09:31;;;;;;;4.57;2.97;;;20.90;99.90;;;;;;5006806;28;20558;-77
2023/08/25 00:12:00;;;;;;;5.30;2.80;;;20.90;99.90;;;;;;4998632;28;20231;-77
2023/08/25 00:14:30;;;;;;;3.63;2.80;;;21.00;99.90;;;;;;4994414;28;20195;-77
2023/08/25 00:16:57;;;;;;;3.53;2.75;;;21.00;99.90;;;;;;4989749;28;20554;-77
2023/08/25 00:19:25;;;;;;;4.45;2.63;;;21.00;99.90;;;;;;4995453;28;20207;-77
2023/08/25 00:21:52;;;;;;;5.30;2.42;;;21.00;99.90;;;;;;4995670;28;20235;-77
2023/08/25 00:24:19;;;;;;;7.20;2.83;;;21.00;99.90;;;;;;4995045;28;20665;-77
2023/08/25 00:26:47;;;;;;;4.35;2.90;;;21.10;99.90;;;;;;5013343;28;20563;-78
2023/08/25 00:29:16;;;;;;;4.13;2.67;;;21.00;99.90;;;;;;4995463;28;20203;-77
2023/08/25 00:31:45;;;;;;;3.97;2.78;;;21.10;99.90;;;;;;5010924;28;20231;-77
2023/08/25 00:34:13;;;;;;;3.60;2.70;;;21.10;99.90;;;;;;4995503;28;20544;-77
2023/08/25 00:36:40;;;;;;;3.80;2.83;;;21.10;99.90;;;;;;4995512;28;20200;-77
2023/08/25 00:39:07;;;;;;;5.50;2.38;;;21.20;99.90;;;;;;4995460;28;20211;-78
2023/08/25 00:41:35;;;;;;;2.35;2.10;;;21.20;99.90;;;;;;4994868;28;20242;-77
2023/08/25 00:44:03;;;;;;;2.88;2.40;;;21.10;99.90;;;;;;4995662;28;20211;-78
2023/08/25 00:46:32;;;;;;;4.50;2.63;;;21.20;99.90;;;;;;4994398;28;20681;-78
2023/08/25 00:49:00;;;;;;;5.93;2.97;;;21.20;99.90;;;;;;5002408;28;20206;-78
2023/08/25 00:51:28;;;;;;;3.10;2.75;;;21.20;99.90;;;;;;4994582;28;20235;-77
2023/08/25 00:53:56;;;;;;;5.22;2.80;;;21.20;99.90;;;;;;5012811;28;20180;-78
2023/08/25 00:56:24;;;;;;;4.65;2.25;;;21.20;99.90;;;;;;4995558;28;20203;-77
2023/08/25 00:58:52;;;;;;;3.38;2.80;;;21.20;99.90;;;;;;4994727;28;20204;-77
2023/08/25 01:01:19;;;;;;;5.35;2.72;;;21.20;99.90;;;;;;4988536;28;20215;-77
2023/08/25 01:03:48;;;;;;;4.65;2.60;;;21.20;99.90;;;;;;5012597;28;20195;-78
2023/08/25 01:06:16;;;;;;;3.70;2.75;;;21.20;99.90;;;;;;4993129;28;20211;-79
2023/08/25 01:08:44;;;;;;;3.67;2.67;;;21.20;99.90;;;;;;4992077;28;20683;-78
2023/08/25 01:11:33;;;;;;;2.95;2.65;;;21.10;99.90;;;;;;4999223;28;20232;-77
2023/08/25 01:14:08;;;;;;;3.22;2.70;;;20.90;99.90;;;;;;4995283;28;20212;-78
2023/08/25 01:16:40;;;;;;;4.25;2.65;;;20.80;99.90;;;;;;4989058;28;20198;-77
2023/08/25 01:19:26;;;;;;;3.15;2.63;;;20.80;99.90;;;;;;4996927;28;20225;-77
2023/08/25 01:21:59;;;;;;;2.95;2.65;;;20.70;99.90;;;;;;5012736;28;20219;-78
2023/08/25 01:24:32;;;;;;;3.90;2.90;;;20.70;99.90;;;;;;4995094;28;20200;-79
2023/08/25 01:27:01;;;;;;;4.75;3.13;;;20.80;99.90;;;;;;5012430;28;20215;-77
2023/08/25 01:29:28;;;;;;;4.38;3.10;;;20.70;99.90;;;;;;4994266;28;20567;-78
2023/08/25 01:31:57;;;;;;;5.28;2.72;;;20.60;99.90;;;;;;5000872;28;20230;-77
2023/08/25 01:34:25;;;;;;;4.38;3.13;;;20.70;99.90;;;;;;5000289;28;20711;-78
2023/08/25 01:37:03;;;;;;;4.40;2.42;;;20.70;99.90;;;;;;4994549;28;20692;-78
2023/08/25 01:39:34;;;;;;;3.28;2.90;;;20.70;99.90;;;;;;4994011;28;20195;-78
2023/08/25 01:42:06;;;;;;;4.07;2.80;;;20.60;99.90;;;;;;4994688;28;20230;-78
2023/08/25 01:44:37;;;;;;;6.03;3.28;;;20.50;99.90;;;;;;4994889;28;20207;-78
2023/08/25 01:47:07;;;;;;;4.97;2.80;;;20.40;99.90;;;;;;4979136;28;20572;-77
2023/08/25 01:49:36;;;;;;;4.40;3.20;;;20.50;99.90;;;;;;4994512;28;20676;-77
2023/08/25 01:52:05;;;;;;;4.20;3.17;;;20.50;99.90;;;;;;4991318;28;20235;-78
2023/08/25 01:54:33;;;;;;;4.28;2.90;;;20.50;99.90;;;;;;4975398;28;20196;-77
2023/08/25 01:57:00;;;;;;;3.38;2.65;;;20.60;99.90;;;;;;4975193;28;20215;-77
2023/08/25 01:59:29;;;;;;;4.15;3.13;;;20.60;99.90;;;;;;4991258;28;20200;-77
2023/08/25 02:01:56;;;;;;;4.53;3.17;;;20.60;99.90;;;;;;5007501;28;20596;-77
2023/08/25 02:04:24;;;;;;;3.97;2.90;;;20.60;99.90;;;;;;5011216;28;20199;-77
2023/08/25 02:06:51;;;;;;;4.30;3.05;;;20.50;99.90;;;;;;4996890;28;20574;-78
2023/08/25 02:09:19;;;;;;;4.13;2.88;;;20.60;99.90;;;;;;4994617;28;20561;-78
2023/08/25 02:11:46;;;;;;;4.43;2.90;;;20.50;99.90;;;;;;4999154;28;20223;-78
2023/08/25 02:14:23;;;;;;;4.60;3.28;;;20.40;99.90;;;;;;5019112;28;20191;-77
2023/08/25 02:16:51;;;;;;;4.38;3.60;;;20.60;99.90;;;;;;4993766;28;20203;-78
2023/08/25 02:19:19;;;;;;;6.57;3.28;;;20.60;99.90;;;;;;5003706;28;20196;-77
2023/08/25 02:21:47;;;;;;;6.78;3.25;;;20.60;99.90;;;;;;4981361;28;20236;-77
2023/08/25 02:24:14;;;;;;;3.58;3.00;;;20.60;99.90;;;;;;4978700;28;20197;-78
2023/08/25 02:26:42;;;;;;;3.40;2.85;;;20.50;99.90;;;;;;4996197;28;20657;-77
2023/08/25 02:29:11;;;;;;;4.13;3.55;;;20.60;99.90;;;;;;4994589;28;20231;-77
2023/08/25 02:31:39;;;;;;;3.50;3.10;;;20.50;99.90;;;;;;4993645;28;20246;-78
2023/08/25 02:34:08;;;;;;;4.38;3.28;;;20.30;99.90;;;;;;4997820;28;20198;-78
2023/08/25 02:36:36;;;;;;;4.50;3.80;;;20.30;99.90;;;;;;4997206;28;20200;-78
2023/08/25 02:39:04;;;;;;;3.70;3.40;;;20.10;99.90;;;;;;4994308;28;20210;-78
2023/08/25 02:41:31;;;;;;;4.22;3.83;;;20.10;99.90;;;;;;5009738;28;20231;-77
2023/08/25 02:44:02;;;;;;;5.05;3.60;;;20.10;99.90;;;;;;4996644;28;20199;-78
2023/08/25 02:46:29;;;;;;;6.18;3.83;;;20.10;99.90;;;;;;5005553;28;20226;-77
2023/08/25 02:48:57;;;;;;;3.60;3.28;;;20.00;99.90;;;;;;4998748;28;20204;-77
2023/08/25 02:51:26;;;;;;;5.43;3.38;;;19.90;99.90;;;;;;4987066;28;20574;-77
2023/08/25 02:53:53;;;;;;;4.10;3.10;;;19.90;99.90;;;;;;5012051;28;20562;-77
2023/08/25 02:56:20;;;;;;;4.35;3.50;;;19.80;99.90;;;;;;5014215;28;20196;-78
2023/08/25 02:58:48;;;;;;;4.40;3.60;;;19.80;99.90;;;;;;5013863;28;20520;-77
2023/08/25 03:01:15;;;;;;;6.05;3.65;;;19.90;99.90;;;;;;4993127;28;20225;-78
2023/08/25 03:03:44;;;;;;;4.35;3.47;;;19.80;99.90;;;;;;4978949;28;20204;-77
2023/08/25 03:06:14;;;;;;;3.67;3.10;;;19.70;99.90;;;;;;4997598;28;20219;-77
2023/08/25 03:08:45;;;;;;;5.05;3.75;;;19.80;99.90;;;;;;5000162;28;20192;-77
2023/08/25 03:11:14;;;;;;;6.53;3.90;;;19.80;99.90;;;;;;4996924;28;20212;-77
2023/08/25 03:13:41;;;;;;;6.82;4.22;;;19.70;99.90;;;;;;4997236;28;20203;-78
2023/08/25 03:16:10;;;;;;;4.15;3.60;;;19.60;99.90;;;;;;4996472;28;20203;-78
2023/08/25 03:18:38;;;;;;;7.43;3.47;;;19.50;99.90;;;;;;4998648;28;20581;-78
2023/08/25 03:21:06;;;;;;;7.22;3.63;;;19.50;99.90;;;;;;4996863;28;20196;-78
2023/08/25 03:23:35;;;;;;;5.25;3.65;;;19.60;99.90;;;;;;4996765;28;20200;-77
2023/08/25 03:26:04;;;;;;;3.90;3.50;;;19.50;99.90;;;;;;4996379;28;20199;-77
2023/08/25 03:28:32;;;;;;;4.63;3.70;;;19.50;99.90;;;;;;4996272;28;20214;-78
2023/08/25 03:30:59;;;;;;;5.18;3.28;;;19.60;99.90;;;;;;4992854;28;20208;-78
2023/08/25 03:33:27;;;;;;;5.38;3.75;;;19.60;99.90;;;;;;4990932;28;20649;-77
2023/08/25 03:35:54;;;;;;;7.90;3.25;;;19.50;99.90;;;;;;5005019;28;20292;-78
2023/08/25 03:38:22;;;;;;;4.18;3.67;;;19.50;99.90;;;;;;4996407;28;20219;-78
2023/08/25 03:40:58;;;;;;;5.03;3.78;;;19.40;99.90;;;;;;5012649;28;20196;-77
2023/08/25 03:43:27;;;;;;;6.35;4.43;;;19.30;99.90;;;;;;5014458;28;20175;-77
2023/08/25 03:45:54;;;;;;;5.88;4.10;;;19.40;99.90;;;;;;5010156;28;20202;-77
2023/08/25 03:48:22;;;;;;;8.65;4.40;;;19.30;99.90;;;;;;4996287;28;20234;-78
2023/08/25 03:50:49;;;;;;;5.82;4.22;;;19.20;99.90;;;;;;4996269;28;20200;-77
2023/08/25 03:53:17;;;;;;;5.35;3.78;;;19.20;99.90;;;;;;4985404;28;20231;-77
2023/08/25 03:55:45;;;;;;;3.88;3.47;;;19.20;99.90;;;;;;4991145;28;20208;-77
2023/08/25 03:58:13;;;;;;;4.70;3.80;;;19.20;99.90;;;;;;4976925;28;20196;-77
2023/08/25 04:00:42;;;;;;;5.22;3.88;;;19.30;99.90;;;;;;4989095;28;20192;-77
2023/08/25 04:03:10;;;;;;;5.60;3.72;;;19.30;99.90;;;;;;5012368;28;20230;-78
2023/08/25 04:05:37;;;;;;;4.93;3.80;;;19.30;99.90;;;;;;5000598;28;20206;-77
2023/08/25 04:08:05;;;;;;;6.40;3.88;;;19.30;99.90;;;;;;5000370;28;20219;-77
2023/08/25 04:10:35;;;;;;;6.63;4.50;;;19.20;99.90;;;;;;4992691;28;20196;-77
2023/08/25 04:13:02;;;;;;;4.95;4.38;;;19.10;99.90;;;;;;5003104;28;20216;-77
2023/08/25 04:15:30;;;;;;;4.50;4.05;;;19.10;99.90;;;;;;4989843;28;20592;-77
2023/08/25 04:17:59;;;;;;;5.88;4.15;;;19.10;99.90;;;;;;4993396;28;20192;-77
2023/08/25 04:20:27;;;;;;;5.22;3.67;;;19.00;99.90;;;;;;4994485;28;20219;-78
2023/08/25 04:22:55;;;;;;;4.93;4.00;;;19.10;99.90;;;;;;5011216;28;20314;-77
2023/08/25 04:25:22;;;;;;;5.95;4.38;;;19.20;99.90;;;;;;4995907;28;20561;-77
2023/08/25 04:27:50;;;;;;;5.40;4.90;;;19.20;99.90;;;;;;4995740;28;20211;-77
2023/08/25 04:30:22;;;;;;;8.10;5.43;;;19.10;99.90;;;;;;4994610;28;20208;-78
2023/08/25 04:32:50;;;;;;;5.82;5.20;;;19.00;99.90;;;;;;4995902;28;20211;-77
2023/08/25 04:35:20;;;;;;;5.65;5.15;;;19.00;99.90;;;;;;4995590;28;20550;-77
2023/08/25 04:37:48;;;;;;;6.85;5.20;;;18.90;99.90;;;;;;4995189;28;20191;-78
2023/08/25 04:40:16;;;;;;;8.45;5.75;;;18.80;99.90;;;;;;5002819;28;20207;-77
2023/08/25 04:42:43;;;;;;;8.57;6.45;;;18.90;99.90;;;;;;4995064;28;20216;-78
2023/08/25 04:45:12;;;;;;;8.48;5.38;;;18.90;99.90;;;;;;4994302;28;20207;-77
2023/08/25 04:47:40;;;;;;;7.88;5.35;;;18.90;99.90;;;;;;4986035;28;20222;-78
2023/08/25 04:50:09;;;;;;;6.20;5.13;;;18.90;99.90;;;;;;5008491;28;20211;-78
2023/08/25 04:52:38;;;;;;;7.57;5.60;;;18.80;99.90;;;;;;5003308;28;20572;-78
2023/08/25 04:55:06;;;;;;;7.53;5.93;;;18.90;99.90;;;;;;4994896;28;20661;-77
2023/08/25 04:57:42;;;;;;;7.35;5.68;;;18.80;99.90;;;;;;4988143;28;20243;-78
2023/08/25 05:00:10;;;;;;;6.07;5.47;;;18.80;99.90;;;;;;4993359;28;20207;-79
2023/08/25 05:02:41;;;;;;;7.70;6.10;;;18.90;99.90;;;;;;4984430;28;20253;-78
2023/08/25 05:05:11;;;;;;;8.48;5.22;;;19.00;99.90;;;;;;4990942;28;20204;-77
2023/08/25 05:07:41;;;;;;;5.82;5.15;;;19.00;99.90;;;;;;4985195;28;20216;-77
2023/08/25 05:10:10;;;;;;;7.63;5.55;;;19.00;99.90;;;;;;5007010;28;20569;-78
2023/08/25 05:12:40;;;;;;;6.82;5.65;;;18.90;99.90;;;;;;4993659;28;20215;-78
2023/08/25 05:15:10;;;;;;;7.57;5.63;;;18.90;99.90;;;;;;5001722;28;20211;-78
2023/08/25 05:17:39;;;;;;;8.63;7.68;;;19.10;99.90;;;;;;4989437;28;20219;-78
2023/08/25 05:20:10;;;;;;;9.52;7.28;;;19.10;99.90;;;;;;4994574;28;20202;-78
2023/08/25 05:22:39;;;;;;;10.63;9.13;;;19.10;99.90;;;;;;4986848;28;20227;-78
2023/08/25 05:25:16;;;;;;;10.52;8.90;;;19.30;99.90;;;;;;5002327;28;20211;-80
2023/08/25 05:27:45;;;;;;;10.43;8.35;;;19.20;99.90;;;;;;4993454;28;20498;-78
2023/08/25 05:30:14;;;;;;;10.45;8.25;;;19.00;99.90;;;;;;5010556;28;20192;-78
2023/08/25 05:32:41;;;;;;;10.02;7.95;;;19.20;99.90;;;;;;4993814;28;20223;-78
2023/08/25 05:35:32;;;;;;;7.70;6.53;;;19.40;99.90;;;;;;5008221;28;20204;-78
2023/08/25 05:38:20;;;;;;;10.90;9.50;;;19.80;99.90;;;;;;4993311;28;20198;-80
2023/08/25 05:40:48;;;;;;;10.57;9.20;;;20.20;99.90;;;;;;4991136;28;20207;-78
2023/08/25 05:43:15;;;;;;;11.35;10.30;;;19.70;99.90;;;;;;4993395;28;20227;-78
2023/08/25 05:45:43;;;;;;;9.68;8.77;;;19.60;99.90;;;;;;4990979;28;20226;-77
2023/08/25 05:48:10;;;;;;;10.60;9.07;;;19.70;99.90;;;;;;5004698;28;20223;-78
2023/08/25 05:50:38;;;;;;;11.35;8.35;;;19.90;99.90;;;;;;4988041;28;20201;-79
2023/08/25 05:53:05;;;;;;;11.40;10.30;;;20.00;99.90;;;;;;5006679;28;20216;-79
2023/08/25 05:55:34;;;;;;;8.73;7.80;;;20.10;99.90;;;;;;5016199;28;20204;-78
2023/08/25 05:58:04;;;;;;;8.98;8.02;;;20.50;99.90;;;;;;5017825;28;20656;-78
2023/08/25 06:00:31;;;;;;;11.13;9.90;;;20.80;99.90;;;;;;5021696;28;20199;-81
2023/08/25 06:02:59;;;;;;;11.40;9.27;;;20.60;99.90;;;;;;5010288;28;20216;-77
2023/08/25 06:05:26;;;;;;;11.90;10.77;;;20.90;99.90;;;;;;5025840;28;20200;-78
2023/08/25 06:07:54;;;;;;;13.82;11.98;;;20.70;99.90;;;;;;5008589;28;20227;-79
2023/08/25 06:10:21;;;;;;;11.02;9.93;;;20.40;99.90;;;;;;5008959;28;20564;-78
2023/08/25 06:12:51;;;;;;;9.50;8.55;;;20.40;99.90;;;;;;5007953;28;20212;-77
2023/08/25 06:15:18;;;;;;;11.85;10.60;;;20.80;99.90;;;;;;5017211;28;20195;-79
2023/08/25 06:17:46;;;;;;;10.57;9.52;;;20.80;99.90;;;;;;5023463;28;20204;-81
2023/08/25 06:20:13;;;;;;;9.93;8.43;;;20.90;99.90;;;;;;5004765;28;20494;-78
2023/08/25 06:22:41;;;;;;;10.30;8.52;;;21.20;99.90;;;;;;5004057;28;20224;-78
2023/08/25 06:25:10;;;;;;;11.35;8.23;;;21.40;99.90;;;;;;5021040;28;20295;-77
2023/08/25 06:27:37;;;;;;;11.82;8.80;;;21.50;99.90;;;;;;5011502;28;20215;-75
2023/08/25 06:30:08;;;;;;;11.95;8.50;;;21.40;99.90;;;;;;5023575;28;20184;-76
2023/08/25 06:32:35;;;;;;;11.52;9.50;;;21.50;99.90;;;;;;5009346;28;20220;-76
2023/08/25 06:35:03;;;;;;;12.73;9.68;;;21.50;99.90;;;;;;5006840;28;20200;-76
2023/08/25 06:37:30;;;;;;;16.85;11.43;;;21.40;99.90;;;;;;5006644;28;20218;-75
2023/08/25 06:39:57;;;;;;;11.95;8.88;;;21.40;99.90;;;;;;5022768;28;20187;-75
2023/08/25 06:42:25;;;;;;;11.88;9.73;;;21.50;99.90;;;;;;5005908;28;20219;-75
2023/08/25 06:44:52;;;;;;;14.13;10.18;;;21.60;99.90;;;;;;5011289;28;20199;-76
2023/08/25 06:47:21;;;;;;;11.05;8.82;;;21.50;99.90;;;;;;5007549;28;20204;-76
2023/08/25 06:49:54;;;;;;;10.95;8.88;;;21.60;99.90;;;;;;5009353;28;20228;-78
2023/08/25 06:52:22;;;;;;;11.18;8.15;;;21.70;99.90;;;;;;5011170;28;20231;-76
2023/08/25 06:54:49;;;;;;;11.15;9.43;;;21.90;99.90;;;;;;5000200;28;20198;-76
2023/08/25 06:57:23;;;;;;;12.00;8.93;;;21.90;99.90;;;;;;5010685;28;20519;-79
2023/08/25 06:59:51;;;;;;;10.55;7.25;;;21.70;99.90;;;;;;5001306;28;20653;-77
2023/08/25 07:02:18;;;;;;;10.13;8.43;;;22.00;99.90;;;;;;4999949;28;20601;-76
2023/08/25 07:04:47;;;;;;;10.40;8.13;;;22.10;99.90;;;;;;5019998;28;20206;-76
2023/08/25 07:07:14;;;;;;;11.35;8.65;;;22.10;99.90;;;;;;4997281;28;20207;-76
2023/08/25 07:09:42;;;;;;;9.85;7.88;;;22.30;99.90;;;;;;4982168;28;20227;-76
2023/08/25 07:12:09;;;;;;;10.52;8.25;;;22.30;99.90;;;;;;5010369;28;20216;-78
2023/08/25 07:14:43;;;;;;;11.73;7.93;;;22.10;99.90;;;;;;4997100;28;20219;-77
2023/08/25 07:17:11;;;;;;;8.85;7.45;;;21.90;99.90;;;;;;5008353;28;20200;-75
2023/08/25 07:19:44;;;;;;;6.28;5.78;;;21.80;99.90;;;;;;5018069;28;20207;-76
2023/08/25 07:22:13;;;;;;;7.07;6.10;;;21.80;99.90;;;;;;4997362;28;20243;-74
2023/08/25 07:24:42;;;;;;;8.68;5.50;;;21.80;99.90;;;;;;5002793;28;20266;-75
2023/08/25 07:27:22;;;;;;;8.02;5.50;;;21.90;99.90;;;;;;5012290;28;20219;-75
2023/08/25 07:29:52;;;;;;;5.85;5.25;;;22.00;99.90;;;;;;5005392;28;20216;-75
2023/08/25 07:32:20;;;;;;;8.15;4.95;;;22.00;99.90;;;;;;4998920;28;20223;-77
2023/08/25 07:34:47;;;;;;;7.18;4.70;;;22.10;99.90;;;;;;5003910;28;20295;-76
2023/08/25 07:37:19;;;;;;;6.07;5.47;;;22.20;99.90;;;;;;4996195;28;20204;-75
2023/08/25 07:39:51;;;;;;;10.52;6.57;;;22.20;99.90;;;;;;4990093;28;20192;-76
2023/08/25 07:42:18;;;;;;;12.88;6.28;;;22.00;99.90;;;;;;4998344;28;20227;-76
2023/08/25 07:44:48;;;;;;;7.20;6.03;;;21.90;99.90;;;;;;4972394;28;20204;-75
2023/08/25 07:47:15;;;;;;;6.43;5.70;;;21.60;99.90;;;;;;5002319;28;20208;-75
2023/08/25 07:49:45;;;;;;;7.18;6.28;;;21.60;99.90;;;;;;4982106;28;20228;-76
2023/08/25 07:52:15;;;;;;;7.63;5.22;;;21.40;99.90;;;;;;5009604;28;20243;-76
2023/08/25 07:54:43;;;;;;;7.57;5.30;;;21.30;99.90;;;;;;5010011;28;20203;-77
2023/08/25 07:57:10;;;;;;;5.80;5.22;;;21.10;99.90;;;;;;5016816;28;20199;-76
2023/08/25 07:59:37;;;;;;;8.75;5.80;;;21.00;99.90;;;;;;5007423;28;20203;-76
2023/08/25 08:02:05;;;;;;;6.90;5.15;;;21.10;99.90;;;;;;4997505;28;20230;-77
2023/08/25 08:04:32;;;;;;;5.18;4.63;;;21.00;99.90;;;;;;5002215;28;20199;-77
2023/08/25 08:07:00;;;;;;;6.15;4.70;;;21.00;99.90;;;;;;5005735;28;20210;-77
2023/08/25 08:09:31;;;;;;;9.05;4.97;;;21.00;99.90;;;;;;4988795;28;20224;-78
2023/08/25 08:11:59;;;;;;;5.82;5.22;;;21.00;99.90;;;;;;4990027;28;20840;-77
2023/08/25 08:14:26;;;;;;;7.47;5.60;;;20.80;99.90;;;;;;4985894;28;20211;-77
2023/08/25 08:16:54;;;;;;;8.20;5.20;;;20.80;99.90;;;;;;5002487;28;20204;-78
2023/08/25 08:19:21;;;;;;;6.40;5.07;;;20.80;99.90;;;;;;4993988;28;20200;-79
2023/08/25 08:21:48;;;;;;;8.75;5.20;;;20.60;99.90;;;;;;5004492;28;20234;-77
2023/08/25 08:24:16;;;;;;;7.35;5.20;;;20.50;99.90;;;;;;4993848;28;20207;-77
2023/08/25 08:26:56;;;;;;;6.80;5.75;;;20.50;99.90;;;;;;4993350;28;20662;-77
2023/08/25 08:29:32;;;;;;;6.18;5.30;;;20.20;99.90;;;;;;4995518;28;20222;-77
2023/08/25 08:31:59;;;;;;;7.72;6.40;;;20.20;99.90;;;;;;4990108;28;20223;-77
2023/08/25 08:34:27;;;;;;;6.75;5.88;;;20.20;99.90;;;;;;4992908;28;20558;-77
2023/08/25 08:36:54;;;;;;;5.97;5.25;;;20.20;99.90;;;;;;5007676;28;20207;-77
2023/08/25 08:39:25;;;;;;;7.35;5.95;;;20.20;99.90;;;;;;4993208;28;20218;-77
2023/08/25 08:41:53;;;;;;;7.32;6.38;;;20.20;99.90;;;;;;5006772;28;20224;-78
2023/08/25 08:44:23;;;;;;;9.35;6.95;;;20.20;99.90;;;;;;4998514;28;20200;-77
2023/08/25 08:46:51;;;;;;;7.78;6.55;;;20.10;99.90;;;;;;5005874;28;20214;-77
2023/08/25 08:49:21;;;;;;;7.38;6.53;;;20.10;99.90;;;;;;4990700;28;20230;-77
2023/08/25 08:51:50;;;;;;;8.25;5.97;;;20.10;99.90;;;;;;4997498;28;20231;-77
2023/08/25 08:54:19;;;;;;;8.25;5.72;;;20.10;99.90;;;;;;4990499;28;20226;-77
2023/08/25 08:56:47;;;;;;;7.85;6.30;;;20.10;99.90;;;;;;4989716;28;20208;-77
2023/08/25 08:59:14;;;;;;;8.18;6.60;;;20.10;99.90;;;;;;4991842;28;20222;-78
2023/08/25 09:01:43;;;;;;;7.25;6.55;;;20.10;99.90;;;;;;4988189;28;20230;-77
2023/08/25 09:04:11;;;;;;;9.00;6.88;;;20.10;99.90;;;;;;5002261;28;20240;-77
2023/08/25 09:06:40;;;;;;;9.52;6.88;;;20.10;99.90;;;;;;5009964;28;20199;-77
2023/08/25 09:09:09;;;;;;;8.90;6.93;;;20.00;99.90;;;;;;4983224;28;20234;-77
2023/08/25 09:11:37;;;;;;;8.30;5.50;;;20.10;99.90;;;;;;5001101;28;20224;-77
2023/08/25 09:14:11;;;;;;;8.30;5.45;;;20.10;99.90;;;;;;5007010;28;20214;-77
2023/08/25 09:16:53;;;;;;;5.95;4.65;;;20.20;99.90;;;;;;4987509;28;20218;-77
2023/08/25 09:19:31;;;;;;;6.15;4.43;;;20.20;99.90;;;;;;5000318;28;20204;-77
2023/08/25 09:22:52;;;;;;;6.20;5.53;;;20.20;99.90;;;;;;4992271;28;20223;-78
2023/08/25 09:25:19;;;;;;;6.90;4.63;;;20.30;99.90;;;;;;4998455;28;20203;-76
2023/08/25 09:27:47;;;;;;;6.10;4.78;;;20.40;99.90;;;;;;4990990;28;20223;-77
2023/08/25 09:30:14;;;;;;;5.28;4.57;;;20.30;99.90;;;;;;4996712;28;20232;-77
2023/08/25 09:33:02;;;;;;;7.95;5.20;;;20.40;99.90;;;;;;5012598;28;20234;-78
2023/08/25 09:35:31;;;;;;;7.97;5.95;;;20.50;99.90;;;;;;5014029;28;20195;-78
2023/08/25 09:38:34;;;;;;;;;;;;;;;;;;;;;
2023/08/25 09:41:23;;;;;;;7.30;5.22;;;20.60;99.90;;;;;;4986445;28;20214;-78
2023/08/25 09:43:51;;;;;;;10.65;5.80;;;20.70;99.90;;;;;;4992282;28;20665;-77
2023/08/25 09:46:27;;;;;;;6.25;5.65;;;20.60;99.90;;;;;;5011968;28;20199;-78
2023/08/25 09:49:11;;;;;;;6.38;5.82;;;20.40;99.90;;;;;;5010509;28;20215;-77
2023/08/25 09:51:41;;;;;;;5.88;5.38;;;20.40;99.90;;;;;;5000402;28;20216;-78
2023/08/25 09:54:10;;;;;;;5.97;5.38;;;20.40;99.90;;;;;;4991920;28;20208;-78
2023/08/25 09:56:39;;;;;;;8.05;5.78;;;20.50;99.90;;;;;;5010175;28;20204;-78
2023/08/25 09:59:08;;;;;;;7.03;5.97;;;20.50;99.90;;;;;;4995136;28;20207;-78
2023/08/25 10:01:37;;;;;;;7.20;6.50;;;20.60;99.90;;;;;;5011368;28;20395;-77
2023/08/25 10:04:07;;;;;;;6.82;5.68;;;20.60;99.90;;;;;;5012241;28;20215;-78
2023/08/25 10:06:39;;;;;;;6.30;5.70;;;20.60;99.90;;;;;;4998905;28;20211;-78
2023/08/25 10:09:08;;;;;;;6.85;6.18;;;20.50;99.90;;;;;;4991182;28;20210;-78
2023/08/25 10:11:37;;;;;;;8.80;7.05;;;20.60;99.90;;;;;;5007628;28;20223;-78
2023/08/25 10:14:08;;;;;;;7.65;6.63;;;20.50;99.90;;;;;;4999874;28;20234;-78
2023/08/25 10:16:39;;;;;;;8.70;6.75;;;20.50;99.90;;;;;;5016719;28;20207;-78
2023/08/25 10:19:14;;;;;;;9.48;7.65;;;20.40;99.90;;;;;;4999032;28;20214;-78
2023/08/25 10:21:54;;;;;;;8.80;7.75;;;20.50;99.90;;;;;;4999351;28;20230;-78
2023/08/25 10:24:23;;;;;;;9.75;7.55;;;20.40;99.90;;;;;;5013946;28;20668;-78
2023/08/25 10:26:51;;;;;;;7.88;6.90;;;20.40;99.90;;;;;;5010158;28;20427;-78
2023/08/25 10:29:29;;;;;;;9.23;7.82;;;20.30;99.90;;;;;;5010185;28;20192;-78
2023/08/25 10:32:00;;;;;;;8.95;7.75;;;20.30;99.90;;;;;;5011575;28;20226;-78
2023/08/25 10:34:33;;;;;;;7.72;5.70;;;20.20;99.90;;;;;;5008733;28;20206;-78
2023/08/25 10:37:05;;;;;;;6.57;5.97;;;20.00;99.90;;;;;;4996467;28;20204;-77
2023/08/25 10:39:46;;;;;;;7.50;6.78;;;20.10;99.90;;;;;;5005669;28;20288;-77
2023/08/25 10:42:14;;;;;;;8.70;6.13;;;20.00;99.90;;;;;;4989861;28;20234;-77
2023/08/25 10:44:42;;;;;;;8.85;6.00;;;20.00;99.90;;;;;;4993974;28;20215;-77
2023/08/25 10:47:10;;;;;;;5.65;5.00;;;19.90;99.90;;;;;;4996465;28;20552;-77
2023/08/25 10:49:42;;;;;;;5.53;4.10;;;19.90;99.90;;;;;;4990599;28;20195;-77
2023/08/25 10:52:16;;;;;;;5.38;4.05;;;19.80;99.90;;;;;;4995711;28;20730;-77
2023/08/25 10:54:45;;;;;;;6.50;3.90;;;19.80;99.90;;;;;;5002960;28;20214;-78
2023/08/25 10:57:21;;;;;;;7.57;3.95;;;19.80;99.90;;;;;;4995522;28;20210;-77
2023/08/25 10:59:51;;;;;;;6.28;3.60;;;19.80;99.90;;;;;;4994910;28;20203;-78
2023/08/25 11:02:35;;;;;;;4.22;3.80;;;19.80;99.90;;;;;;4998826;28;20227;-78
2023/08/25 11:05:45;;;;;;;4.82;3.03;;;19.80;99.90;;;;;;5004638;28;20215;-77
2023/08/25 11:08:29;;;;;;;4.10;3.25;;;19.70;99.90;;;;;;4993619;28;20207;-78
2023/08/25 11:11:14;;;;;;;3.90;3.47;;;19.60;99.90;;;;;;5008132;28;20215;-78
2023/08/25 11:13:42;;;;;;;4.43;3.10;;;19.50;99.90;;;;;;4995041;28;20210;-78
2023/08/25 11:16:11;;;;;;;9.63;2.75;;;19.40;99.90;;;;;;4987270;28;20221;-77
2023/08/25 11:18:44;;;;;;;7.28;3.58;;;19.40;99.90;;;;;;5008222;28;20209;-78
2023/08/25 11:21:12;;;;;;;3.35;2.80;;;19.50;99.90;;;;;;5011154;28;20207;-78
2023/08/25 11:23:42;;;;;;;4.07;2.80;;;19.50;99.90;;;;;;4994404;28;20208;-78
2023/08/25 11:26:10;;;;;;;4.47;3.10;;;19.40;99.90;;;;;;4996776;28;20208;-78
2023/08/25 11:28:38;;;;;;;5.75;3.10;;;19.40;99.90;;;;;;5011744;28;20203;-78
2023/08/25 11:31:07;;;;;;;4.57;2.92;;;19.40;99.90;;;;;;5006324;28;20223;-78
2023/08/25 11:33:37;;;;;;;5.97;2.92;;;19.30;99.90;;;;;;5010651;28;20211;-78
2023/08/25 11:36:05;;;;;;;4.78;3.30;;;19.30;99.90;;;;;;4991779;28;20208;-78
2023/08/25 11:38:33;;;;;;;5.05;3.15;;;19.30;99.90;;;;;;4994594;28;20215;-78
2023/08/25 11:41:02;;;;;;;4.68;3.10;;;19.40;99.90;;;;;;4995747;28;20207;-78
2023/08/25 11:43:32;;;;;;;3.67;2.90;;;19.40;99.90;;;;;;5011501;28;20211;-78
2023/08/25 11:46:05;;;;;;;3.25;2.58;;;19.50;99.90;;;;;;5006431;28;20662;-78
2023/08/25 11:48:34;;;;;;;4.28;2.90;;;19.60;99.90;;;;;;4991250;28;20212;-78
2023/08/25 11:51:02;;;;;;;3.22;2.60;;;19.60;99.90;;;;;;4983004;28;20223;-78
2023/08/25 11:53:30;;;;;;;3.20;2.40;;;19.60;99.90;;;;;;4988831;28;20216;-79
2023/08/25 11:56:04;;;;;;;4.78;2.70;;;19.70;99.90;;;;;;5007191;28;20210;-78
2023/08/25 11:58:32;;;;;;;3.75;2.03;;;19.70;99.90;;;;;;4991207;28;20785;-78
2023/08/25 12:01:01;;;;;;;3.25;2.70;;;19.80;99.90;;;;;;5006919;28;20200;-78
2023/08/25 12:03:28;;;;;;;1.98;1.77;;;19.80;99.90;;;;;;4986719;28;20207;-78
2023/08/25 12:05:56;;;;;;;2.85;2.53;;;19.80;99.90;;;;;;4983667;28;20203;-78
2023/08/25 12:08:25;;;;;;;4.53;1.88;;;19.70;99.90;;;;;;4993263;28;20219;-78
2023/08/25 12:10:55;;;;;;;2.20;1.67;;;19.80;99.90;;;;;;4988724;28;20241;-78
2023/08/25 12:13:29;;;;;;;2.83;1.95;;;19.80;99.90;;;;;;4993925;28;20250;-77
2023/08/25 12:15:57;;;;;;;2.17;1.70;;;20.00;99.90;;;;;;4984193;28;20576;-77
2023/08/25 12:18:34;;;;;;;2.17;1.90;;;20.10;99.90;;;;;;4991915;28;20208;-77
2023/08/25 12:21:03;;;;;;;1.88;1.75;;;20.00;99.90;;;;;;5004886;28;20653;-77
2023/08/25 12:23:35;;;;;;;3.50;2.22;;;19.80;99.90;;;;;;5007828;28;20213;-78
2023/08/25 12:26:04;;;;;;;3.83;2.58;;;19.80;99.90;;;;;;4993571;28;20215;-77
2023/08/25 12:28:33;;;;;;;3.88;2.42;;;19.90;99.90;;;;;;5002800;28;20215;-78
2023/08/25 12:31:01;;;;;;;4.80;2.58;;;19.90;99.90;;;;;;4990124;28;20215;-77
2023/08/25 12:33:29;;;;;;;3.63;2.60;;;20.00;99.90;;;;;;4993024;28;20204;-78
2023/08/25 12:35:57;;;;;;;2.90;2.13;;;20.00;99.90;;;;;;5009737;28;20211;-78
2023/08/25 12:38:25;;;;;;;4.38;2.83;;;20.00;99.90;;;;;;4992318;28;20666;-78
2023/08/25 12:40:59;;;;;;;2.95;2.60;;;20.10;99.90;;;;;;4975629;28;20196;-78
2023/08/25 12:43:27;;;;;;;3.70;2.60;;;20.20;99.90;;;;;;4976301;28;20204;-78
2023/08/25 12:45:57;;;;;;;5.20;2.53;;;20.40;99.90;;;;;;4992650;28;20196;-78
2023/08/25 12:48:24;;;;;;;4.13;2.35;;;20.90;99.90;;;;;;4991987;28;20200;-78
2023/08/25 12:50:52;;;;;;;4.10;2.40;;;21.10;99.90;;;;;;4992921;28;20208;-78
2023/08/25 12:53:20;;;;;;;4.93;2.63;;;21.20;99.90;;;;;;4992571;28;20705;-78
2023/08/25 12:55:47;;;;;;;2.20;1.90;;;21.40;99.90;;;;;;4991887;28;20211;-78
2023/08/25 12:58:15;;;;;;;3.58;1.95;;;21.50;99.90;;;;;;4993231;28;20193;-78
2023/08/25 13:00:42;;;;;;;3.15;1.80;;;21.50;99.90;;;;;;4985766;28;20681;-79